Terminal Aerodrome Forecast
Issued by NWS

Home | Current Version | Previous Version | Text Only | Print | Product List | Glossary On
Versions: 1 2 3 4 5 6 7 8 9 10 11 12 13 14 15 16 17 18 19
000
FTUS46 KSEW 071853 AAA
TAFCLM
TAF AMD
KCLM 071853Z 0719/0818 35008KT P6SM SCT012
     FM072100 33006KT P6SM FEW250
     FM080200 29007KT P6SM SKC
     FM081000 29006KT P6SM OVC012=

USA.gov is the U.S. government's official web portal to all federal, state and local government web resources and services.